Time;durP1;ratioP1;P1;durP2;ratioP2;P2;SDS_P1;SDS_P2;PMS_P1;PMS_P2;Temp;Humidity;BMP_temperature;BMP_pressure;BME280_temperature;BME280_humidity;BME280_pressure;Samples;Min_cycle;Max_cycle;Signal;HPM_P1;HPM_P2
2021/08/28 00:00:00;;;;;;;;;;;15.90;84.10;16.00;99550.00;;;;344654;28;83429;-93
2021/08/28 00:00:12;;;;;;;;;;;15.90;84.10;16.10;99548.00;;;;344172;28;92292;-92
2021/08/28 00:00:24;;;;;;;;;;;15.90;84.20;16.00;99549.00;;;;346014;28;83431;-92
2021/08/28 00:00:38;;;;;;;;;;;15.90;84.10;16.00;99550.00;;;;345565;28;92682;-93
2021/08/28 00:00:51;;;;;;;;;;;15.90;84.30;16.00;99553.00;;;;345729;28;83472;-91
2021/08/28 00:01:03;;;;;;;;;;;15.90;84.20;16.00;99547.00;;;;346954;28;91890;-91
2021/08/28 00:01:15;;;;;;;;;;;15.90;84.20;16.00;99548.00;;;;347349;28;82610;-93
2021/08/28 00:01:27;;;;;;;;;;;15.90;84.30;16.00;99556.00;;;;342891;28;91277;-93
2021/08/28 00:01:39;;;;;;;;;;;15.90;84.30;16.00;99547.00;;;;346106;28;83410;-92
2021/08/28 00:01:52;;;;;;;;;;;15.90;84.30;16.00;99555.00;;;;345542;28;90796;-93
2021/08/28 00:02:04;;;;;;;;;;;15.90;84.20;16.00;99550.00;;;;343337;28;83421;-92
2021/08/28 00:02:19;;;;;;;;;;;15.80;84.10;16.10;99544.00;;;;343807;28;91899;-93
2021/08/28 00:02:31;;;;;;;;;;;15.90;84.30;16.10;99555.00;;;;343133;28;83501;-92
2021/08/28 00:02:43;;;;;;;;;;;15.90;84.30;16.10;99549.00;;;;344199;28;91765;-92
2021/08/28 00:02:55;;;;;;;;;;;15.90;84.40;16.00;99549.00;;;;344645;28;82508;-92
2021/08/28 00:03:08;;;;;;;;;;;15.90;84.40;15.90;99548.00;;;;344151;28;91345;-92
2021/08/28 00:03:21;;;;;;;;;;;15.90;84.40;16.00;99549.00;;;;347821;27;82467;-92
2021/08/28 00:03:33;;;;;;;;;;;15.90;84.40;16.00;99549.00;;;;345587;28;90203;-92
2021/08/28 00:03:45;;;;;;;;;;;15.80;84.40;16.00;99552.00;;;;344626;28;82457;-92
2021/08/28 00:03:57;;;;;;;;;;;15.80;84.40;16.10;99549.00;;;;345602;28;91151;-93
2021/08/28 00:04:08;;;;;;;;;;;15.80;84.30;16.10;99550.00;;;;346095;28;82525;-93
2021/08/28 00:04:20;;;;;;;;;;;15.80;84.30;16.10;99561.00;;;;342708;28;92259;-93
2021/08/28 00:04:34;;;;;;;;;;;15.90;84.50;16.10;99546.00;;;;343032;28;83470;-92
2021/08/28 00:04:46;;;;;;;;;;;15.90;84.40;16.00;99556.00;;;;345260;28;89784;-92
2021/08/28 00:04:58;;;;;;;;;;;15.80;84.40;16.00;99547.00;;;;347408;28;83386;-92
2021/08/28 00:05:10;;;;;;;;;;;15.80;84.50;16.00;99549.00;;;;342789;28;91872;-93
2021/08/28 00:05:22;;;;;;;;;;;15.80;84.40;16.10;99552.00;;;;346552;28;82788;-92
2021/08/28 00:05:34;;;;;;;;;;;15.80;84.50;16.10;99560.00;;;;344726;28;91685;-92
2021/08/28 00:05:45;;;;;;;;;;;15.80;84.60;16.00;99553.00;;;;345936;28;83443;-92
2021/08/28 00:05:57;;;;;;;;;;;15.80;84.50;16.00;99552.00;;;;345610;28;90683;-92
2021/08/28 00:06:09;;;;;;;;;;;15.80;84.40;16.00;99555.00;;;;344729;28;83486;-92
2021/08/28 00:06:21;;;;;;;;;;;15.80;84.50;16.00;99553.00;;;;343779;28;89887;-92
2021/08/28 00:06:33;;;;;;;;;;;15.80;84.60;16.00;99549.00;;;;344628;28;83435;-92
2021/08/28 00:06:46;;;;;;;;;;;15.80;84.60;16.00;99546.00;;;;345626;28;90819;-92
2021/08/28 00:06:57;;;;;;;;;;;15.80;84.60;16.00;99547.00;;;;345779;28;83520;-93
2021/08/28 00:07:09;;;;;;;;;;;15.80;84.60;16.00;99547.00;;;;345597;28;90995;-92
2021/08/28 00:07:21;;;;;;;;;;;15.80;84.60;16.00;99543.00;;;;344410;28;83522;-93
2021/08/28 00:07:33;;;;;;;;;;;15.80;84.60;16.00;99548.00;;;;347003;28;91280;-91
2021/08/28 00:07:45;;;;;;;;;;;15.80;84.60;16.00;99548.00;;;;344636;28;83344;-92
2021/08/28 00:07:57;;;;;;;;;;;15.80;84.70;16.00;99555.00;;;;346808;28;88741;-92
2021/08/28 00:08:09;;;;;;;;;;;15.80;85.20;16.00;99551.00;;;;345937;28;83536;-92
2021/08/28 00:08:20;;;;;;;;;;;15.80;84.60;15.90;99549.00;;;;346161;28;90523;-92
2021/08/28 00:08:32;;;;;;;;;;;15.80;84.70;16.00;99553.00;;;;345213;28;82649;-91
2021/08/28 00:08:44;;;;;;;;;;;15.80;84.70;16.00;99556.00;;;;344224;28;91125;-92
2021/08/28 00:08:56;;;;;;;;;;;15.80;84.80;16.00;99557.00;;;;344608;28;83434;-92
2021/08/28 00:09:08;;;;;;;;;;;15.80;84.70;16.00;99552.00;;;;341473;28;90126;-93
2021/08/28 00:09:20;;;;;;;;;;;15.80;84.70;16.00;99548.00;;;;344895;28;83412;-92
2021/08/28 00:09:32;;;;;;;;;;;15.80;84.60;16.00;99544.00;;;;344247;28;90732;-92
2021/08/28 00:09:43;;;;;;;;;;;15.80;84.60;16.00;99548.00;;;;346061;28;82446;-91
2021/08/28 00:09:56;;;;;;;;;;;15.80;84.70;15.90;99547.00;;;;342816;28;90661;-91
2021/08/28 00:10:08;;;;;;;;;;;15.80;84.70;16.00;99548.00;;;;343170;28;82486;-92
2021/08/28 00:10:21;;;;;;;;;;;15.80;84.70;16.00;99543.00;;;;344040;28;91630;-92
2021/08/28 00:10:33;;;;;;;;;;;15.80;85.40;16.00;99551.00;;;;345975;28;83361;-93
2021/08/28 00:10:45;;;;;;;;;;;15.80;84.90;16.00;99546.00;;;;344347;28;90179;-91
2021/08/28 00:10:57;;;;;;;;;;;15.80;84.90;16.00;99547.00;;;;346021;28;82479;-92
2021/08/28 00:11:09;;;;;;;;;;;15.80;84.80;16.00;99545.00;;;;346908;28;91762;-92
2021/08/28 00:11:21;;;;;;;;;;;15.80;84.90;16.00;99546.00;;;;346620;28;82687;-92
2021/08/28 00:11:33;;;;;;;;;;;15.80;85.10;16.00;99548.00;;;;346013;28;91131;-92
2021/08/28 00:11:44;;;;;;;;;;;15.80;84.80;16.00;99548.00;;;;345981;28;83320;-92
2021/08/28 00:11:56;;;;;;;;;;;15.80;84.90;16.00;99539.00;;;;342842;28;91028;-93
2021/08/28 00:12:08;;;;;;;;;;;15.80;84.90;16.00;99547.00;;;;343426;28;82472;-92
2021/08/28 00:12:20;;;;;;;;;;;15.80;84.90;16.10;99543.00;;;;345967;28;90524;-92
2021/08/28 00:12:33;;;;;;;;;;;15.80;84.90;16.00;99544.00;;;;344605;28;82491;-92
2021/08/28 00:12:44;;;;;;;;;;;15.80;85.00;16.00;99543.00;;;;342921;28;91141;-92
2021/08/28 00:12:56;;;;;;;;;;;15.80;85.00;16.00;99551.00;;;;343290;28;83252;-93
2021/08/28 00:13:08;;;;;;;;;;;15.80;85.10;16.10;99542.00;;;;345560;28;91223;-91
2021/08/28 00:13:20;;;;;;;;;;;15.80;85.00;16.00;99540.00;;;;344568;28;83520;-92
2021/08/28 00:13:32;;;;;;;;;;;15.80;85.00;16.00;99548.00;;;;345640;28;91198;-92
2021/08/28 00:13:45;;;;;;;;;;;15.80;84.90;16.00;99543.00;;;;345907;28;82401;-92
2021/08/28 00:13:56;;;;;;;;;;;15.80;85.00;16.00;99534.00;;;;344206;28;90597;-92
2021/08/28 00:14:08;;;;;;;;;;;15.80;85.00;16.00;99541.00;;;;344676;28;83595;-91
2021/08/28 00:14:20;;;;;;;;;;;15.80;85.20;16.00;99546.00;;;;345435;28;91574;-93
2021/08/28 00:14:32;;;;;;;;;;;15.80;85.20;16.00;99537.00;;;;344496;28;83455;-92
2021/08/28 00:14:44;;;;;;;;;;;15.80;85.10;16.00;99537.00;;;;345615;28;91941;-92
2021/08/28 00:14:57;;;;;;;;;;;15.80;85.00;16.00;99542.00;;;;347413;28;83391;-93
2021/08/28 00:15:09;;;;;;;;;;;15.80;85.20;16.00;99530.00;;;;344249;28;91571;-92
2021/08/28 00:15:21;;;;;;;;;;;15.80;85.10;16.00;99539.00;;;;346409;28;82421;-91
2021/08/28 00:15:32;;;;;;;;;;;15.80;85.10;16.00;99540.00;;;;345603;28;90976;-92
2021/08/28 00:15:44;;;;;;;;;;;15.80;85.10;16.00;99533.00;;;;345929;28;83508;-93
2021/08/28 00:15:56;;;;;;;;;;;15.80;85.10;16.00;99534.00;;;;344265;28;89138;-91
2021/08/28 00:16:08;;;;;;;;;;;15.80;85.20;16.00;99537.00;;;;343305;28;83491;-92
2021/08/28 00:16:20;;;;;;;;;;;15.80;85.20;16.00;99540.00;;;;345560;28;91123;-93
2021/08/28 00:16:32;;;;;;;;;;;15.80;85.20;16.00;99540.00;;;;345949;28;82598;-93
2021/08/28 00:16:44;;;;;;;;;;;15.80;85.20;16.00;99547.00;;;;347090;28;90330;-92
2021/08/28 00:16:56;;;;;;;;;;;15.80;85.20;16.00;99535.00;;;;347447;28;82493;-93
2021/08/28 00:17:08;;;;;;;;;;;15.80;85.20;16.00;99540.00;;;;345459;28;91951;-92
2021/08/28 00:17:20;;;;;;;;;;;15.80;85.20;16.00;99543.00;;;;347887;27;83714;-92
2021/08/28 00:17:35;;;;;;;;;;;15.80;85.20;16.00;99550.00;;;;344279;28;90261;-93
2021/08/28 00:17:47;;;;;;;;;;;15.80;85.20;16.00;99543.00;;;;344850;28;82509;-93
2021/08/28 00:17:59;;;;;;;;;;;15.80;85.20;16.00;99541.00;;;;345655;28;90655;-92
2021/08/28 00:18:11;;;;;;;;;;;15.80;85.20;15.90;99540.00;;;;348860;27;83459;-92
2021/08/28 00:18:23;;;;;;;;;;;15.80;85.20;16.00;99531.00;;;;345542;28;90300;-91
2021/08/28 00:18:35;;;;;;;;;;;15.80;85.20;16.00;99535.00;;;;343146;28;83500;-92
2021/08/28 00:18:46;;;;;;;;;;;15.80;85.20;16.00;99537.00;;;;345629;28;91550;-92
2021/08/28 00:18:59;;;;;;;;;;;15.80;85.20;16.00;99539.00;;;;346005;28;82540;-92
2021/08/28 00:19:11;;;;;;;;;;;15.80;85.20;16.00;99534.00;;;;344178;28;91984;-91
2021/08/28 00:19:23;;;;;;;;;;;15.80;85.20;16.00;99547.00;;;;345898;28;82635;-92
2021/08/28 00:19:35;;;;;;;;;;;15.80;85.30;16.00;99537.00;;;;345354;28;90763;-92
2021/08/28 00:19:46;;;;;;;;;;;15.80;85.40;16.00;99539.00;;;;346016;28;82472;-93
2021/08/28 00:20:03;;;;;;;;;;;15.80;85.20;16.00;99537.00;;;;344270;28;90026;-92
2021/08/28 00:20:15;;;;;;;;;;;15.80;85.30;16.00;99542.00;;;;344686;28;83372;-93
2021/08/28 00:20:27;;;;;;;;;;;15.80;85.40;15.90;99534.00;;;;344895;28;90593;-94
2021/08/28 00:20:39;;;;;;;;;;;15.80;85.30;16.00;99542.00;;;;344177;28;83600;-92
2021/08/28 00:20:51;;;;;;;;;;;15.80;85.40;16.00;99541.00;;;;345461;28;91300;-92
2021/08/28 00:21:03;;;;;;;;;;;15.80;85.40;16.00;99537.00;;;;345955;28;82482;-94
2021/08/28 00:21:16;;;;;;;;;;;15.80;85.30;15.90;99547.00;;;;346931;28;92206;-91
2021/08/28 00:21:28;;;;;;;;;;;15.80;85.40;16.00;99529.00;;;;346040;28;82629;-92
2021/08/28 00:21:40;;;;;;;;;;;15.80;85.50;16.00;99540.00;;;;344258;28;91195;-92
2021/08/28 00:21:52;;;;;;;;;;;15.80;85.50;16.00;99534.00;;;;344602;28;83423;-92
2021/08/28 00:22:04;;;;;;;;;;;15.80;85.40;15.90;99539.00;;;;342963;28;91302;-91
2021/08/28 00:22:16;;;;;;;;;;;15.80;85.60;15.90;99546.00;;;;344471;28;83513;-92
2021/08/28 00:22:28;;;;;;;;;;;15.80;85.60;15.90;99536.00;;;;345468;28;91359;-93
2021/08/28 00:22:40;;;;;;;;;;;15.80;85.60;16.00;99526.00;;;;343298;28;82529;-92
2021/08/28 00:22:51;;;;;;;;;;;15.80;85.60;16.00;99534.00;;;;342963;28;90750;-92
2021/08/28 00:23:06;;;;;;;;;;;15.80;85.60;16.00;99538.00;;;;344620;28;83477;-92
2021/08/28 00:23:18;;;;;;;;;;;15.80;86.10;16.00;99545.00;;;;344240;28;91907;-93
2021/08/28 00:23:30;;;;;;;;;;;15.80;85.50;16.00;99541.00;;;;345773;28;83525;-92
2021/08/28 00:23:42;;;;;;;;;;;15.80;85.50;16.00;99544.00;;;;345340;28;90817;-92
2021/08/28 00:23:54;;;;;;;;;;;15.80;85.60;16.00;99534.00;;;;344652;28;83497;-93
2021/08/28 00:24:06;;;;;;;;;;;15.80;85.60;16.00;99531.00;;;;344341;28;89671;-92
2021/08/28 00:24:17;;;;;;;;;;;15.80;85.50;16.00;99540.00;;;;344339;28;82484;-92
2021/08/28 00:24:29;;;;;;;;;;;15.80;85.50;16.00;99533.00;;;;345278;28;90923;-92
2021/08/28 00:24:41;;;;;;;;;;;15.80;85.50;16.00;99538.00;;;;344492;28;83548;-92
2021/08/28 00:24:53;;;;;;;;;;;15.80;85.50;16.00;99533.00;;;;344252;28;90445;-92
2021/08/28 00:25:05;;;;;;;;;;;15.80;85.50;16.00;99544.00;;;;344623;28;83356;-93
2021/08/28 00:25:17;;;;;;;;;;;15.80;85.40;16.00;99533.00;;;;345447;28;91836;-92
2021/08/28 00:25:29;;;;;;;;;;;15.80;85.50;16.00;99532.00;;;;346025;28;83406;-92
2021/08/28 00:25:41;;;;;;;;;;;15.80;85.50;16.00;99528.00;;;;342904;28;90399;-91
2021/08/28 00:25:53;;;;;;;;;;;15.80;85.50;16.00;99530.00;;;;344590;28;83384;-92
2021/08/28 00:26:05;;;;;;;;;;;15.80;85.50;16.00;99530.00;;;;346869;28;89377;-91
2021/08/28 00:26:17;;;;;;;;;;;15.80;85.50;16.00;99531.00;;;;345635;28;83467;-92
2021/08/28 00:26:29;;;;;;;;;;;15.80;85.60;16.00;99528.00;;;;346565;28;90583;-92
2021/08/28 00:26:41;;;;;;;;;;;15.80;85.60;16.00;99528.00;;;;347094;28;82601;-92
2021/08/28 00:26:53;;;;;;;;;;;15.80;85.60;16.00;99529.00;;;;347063;28;91307;-92
2021/08/28 00:27:05;;;;;;;;;;;15.80;85.60;16.00;99535.00;;;;346018;28;83530;-92
2021/08/28 00:27:17;;;;;;;;;;;15.80;85.60;16.00;99528.00;;;;344115;28;90703;-93
2021/08/28 00:27:29;;;;;;;;;;;15.80;85.60;16.00;99534.00;;;;343303;28;83415;-93
2021/08/28 00:27:41;;;;;;;;;;;15.80;85.60;16.00;99537.00;;;;345640;28;90584;-92
2021/08/28 00:27:53;;;;;;;;;;;15.80;85.60;16.00;99528.00;;;;343297;28;82404;-92
2021/08/28 00:28:05;;;;;;;;;;;15.80;85.60;16.00;99530.00;;;;342655;28;91113;-92
2021/08/28 00:28:17;;;;;;;;;;;15.80;85.60;16.00;99529.00;;;;344654;28;83491;-93
2021/08/28 00:28:29;;;;;;;;;;;15.80;86.20;16.00;99532.00;;;;345577;28;90337;-92
2021/08/28 00:28:41;;;;;;;;;;;15.80;85.60;16.00;99532.00;;;;343266;28;83343;-93
2021/08/28 00:28:52;;;;;;;;;;;15.80;85.60;16.00;99519.00;;;;344209;28;91729;-92
2021/08/28 00:29:04;;;;;;;;;;;15.80;85.60;16.00;99536.00;;;;345886;28;82564;-91
2021/08/28 00:29:16;;;;;;;;;;;15.80;85.70;16.00;99528.00;;;;345281;28;90260;-92
2021/08/28 00:29:28;;;;;;;;;;;15.80;85.60;16.00;99531.00;;;;344832;28;82471;-91
2021/08/28 00:29:40;;;;;;;;;;;15.80;85.60;16.00;99529.00;;;;343125;28;92068;-93
2021/08/28 00:29:52;;;;;;;;;;;15.80;85.60;16.00;99524.00;;;;344215;28;83483;-92
2021/08/28 00:30:04;;;;;;;;;;;15.80;85.70;16.00;99532.00;;;;344565;28;89777;-92
2021/08/28 00:30:16;;;;;;;;;;;15.80;85.60;16.00;99530.00;;;;346151;28;83502;-92
2021/08/28 00:30:28;;;;;;;;;;;15.80;85.60;16.00;99521.00;;;;344457;28;90701;-91
2021/08/28 00:30:40;;;;;;;;;;;15.90;85.80;16.00;99519.00;;;;346169;28;83471;-92
2021/08/28 00:30:52;;;;;;;;;;;15.80;85.90;15.90;99522.00;;;;347270;28;92122;-92
2021/08/28 00:31:06;;;;;;;;;;;15.80;85.70;15.90;99523.00;;;;346250;28;82474;-92
2021/08/28 00:31:18;;;;;;;;;;;15.80;85.70;16.00;99528.00;;;;347037;27;91783;-91
2021/08/28 00:31:30;;;;;;;;;;;15.80;85.80;15.90;99527.00;;;;344730;28;82289;-91
2021/08/28 00:31:43;;;;;;;;;;;15.80;85.80;15.90;99524.00;;;;345827;28;91290;-92
2021/08/28 00:31:55;;;;;;;;;;;15.80;85.80;15.90;99530.00;;;;346267;28;83442;-92
2021/08/28 00:32:11;;;;;;;;;;;15.80;85.90;16.00;99533.00;;;;346008;28;89826;-92
2021/08/28 00:32:22;;;;;;;;;;;15.80;85.80;16.00;99539.00;;;;344316;28;83622;-93
2021/08/28 00:32:34;;;;;;;;;;;15.80;85.90;16.00;99525.00;;;;344947;28;91537;-92
2021/08/28 00:32:46;;;;;;;;;;;15.80;86.00;16.00;99513.00;;;;343563;28;83432;-93
2021/08/28 00:33:16;;;;;;;;;;;15.80;86.00;16.00;99532.00;;;;343080;28;92078;-92
2021/08/28 00:33:28;;;;;;;;;;;15.80;86.00;16.00;99519.00;;;;341994;28;83357;-92
2021/08/28 00:33:40;;;;;;;;;;;15.80;86.10;16.00;99525.00;;;;344436;28;90427;-92
2021/08/28 00:33:52;;;;;;;;;;;15.80;85.90;16.00;99531.00;;;;344780;28;83410;-92
2021/08/28 00:34:04;;;;;;;;;;;15.80;86.00;16.00;99527.00;;;;347220;28;90538;-92
2021/08/28 00:34:16;;;;;;;;;;;15.80;85.90;16.00;99525.00;;;;342216;28;83404;-92
2021/08/28 00:34:27;;;;;;;;;;;15.80;85.90;16.00;99523.00;;;;344502;28;90651;-93
2021/08/28 00:34:39;;;;;;;;;;;15.80;85.90;16.00;99529.00;;;;344819;28;83574;-92
2021/08/28 00:34:51;;;;;;;;;;;15.80;85.70;16.00;99529.00;;;;344505;28;90466;-91
2021/08/28 00:35:04;;;;;;;;;;;15.80;85.90;16.00;99527.00;;;;344933;28;83449;-92
2021/08/28 00:35:16;;;;;;;;;;;15.80;86.00;16.00;99522.00;;;;344009;28;90887;-92
2021/08/28 00:35:28;;;;;;;;;;;15.80;86.00;16.00;99522.00;;;;343317;28;83485;-92
2021/08/28 00:35:40;;;;;;;;;;;15.80;86.00;16.00;99519.00;;;;344455;28;90476;-92
2021/08/28 00:35:52;;;;;;;;;;;15.80;86.00;16.00;99522.00;;;;347482;27;83566;-93
2021/08/28 00:36:04;;;;;;;;;;;15.80;86.00;16.00;99518.00;;;;344460;28;89249;-92
2021/08/28 00:36:16;;;;;;;;;;;15.80;86.00;16.00;99531.00;;;;346035;28;83477;-92
2021/08/28 00:36:28;;;;;;;;;;;15.80;86.00;16.00;99522.00;;;;345794;28;91010;-92
2021/08/28 00:36:40;;;;;;;;;;;15.80;86.10;16.00;99522.00;;;;344943;28;83412;-93
2021/08/28 00:36:52;;;;;;;;;;;15.80;86.00;16.00;99528.00;;;;344516;28;90654;-91
2021/08/28 00:37:04;;;;;;;;;;;15.80;86.00;16.00;99529.00;;;;346321;28;83377;-92
2021/08/28 00:37:16;;;;;;;;;;;15.80;86.00;16.00;99528.00;;;;345810;28;90839;-93
2021/08/28 00:37:28;;;;;;;;;;;15.80;86.00;16.00;99533.00;;;;346030;28;83428;-92
2021/08/28 00:37:40;;;;;;;;;;;15.80;86.00;16.00;99523.00;;;;344459;28;90709;-91
2021/08/28 00:37:51;;;;;;;;;;;15.80;86.00;16.00;99527.00;;;;346169;28;83675;-92
2021/08/28 00:38:04;;;;;;;;;;;15.80;86.00;16.00;99524.00;;;;343124;28;91327;-93
2021/08/28 00:38:16;;;;;;;;;;;15.80;86.00;16.00;99533.00;;;;346147;28;82537;-92
2021/08/28 00:38:27;;;;;;;;;;;15.80;86.00;16.00;99531.00;;;;345177;28;89964;-91
2021/08/28 00:38:39;;;;;;;;;;;15.80;86.00;16.10;99529.00;;;;346261;28;82663;-92
2021/08/28 00:38:51;;;;;;;;;;;15.80;86.00;16.10;99523.00;;;;345687;28;91478;-92
2021/08/28 00:39:03;;;;;;;;;;;15.80;86.00;16.00;99525.00;;;;346248;28;83376;-91
2021/08/28 00:39:15;;;;;;;;;;;15.80;86.10;16.10;99529.00;;;;344383;28;92020;-92
2021/08/28 00:39:27;;;;;;;;;;;15.90;86.10;16.00;99532.00;;;;344739;28;82613;-92
2021/08/28 00:39:38;;;;;;;;;;;15.80;86.00;16.10;99529.00;;;;345795;28;92325;-92
2021/08/28 00:39:50;;;;;;;;;;;15.80;86.00;16.10;99524.00;;;;346128;28;83612;-92
2021/08/28 00:40:04;;;;;;;;;;;15.80;85.90;16.10;99523.00;;;;343072;28;91283;-92
2021/08/28 00:40:16;;;;;;;;;;;15.90;85.90;16.10;99531.00;;;;344578;28;82556;-92
2021/08/28 00:40:28;;;;;;;;;;;15.90;85.80;16.10;99530.00;;;;344473;28;89957;-92
2021/08/28 00:40:39;;;;;;;;;;;15.90;85.90;16.00;99522.00;;;;343558;28;82482;-91
2021/08/28 00:40:51;;;;;;;;;;;15.90;86.10;16.00;99533.00;;;;345821;28;91289;-93
2021/08/28 00:41:03;;;;;;;;;;;15.80;86.10;16.00;99523.00;;;;346228;28;83442;-92
2021/08/28 00:41:15;;;;;;;;;;;15.80;86.00;16.00;99516.00;;;;345465;28;91769;-93
2021/08/28 00:41:27;;;;;;;;;;;15.90;86.00;16.00;99526.00;;;;347335;28;83509;-92
2021/08/28 00:41:39;;;;;;;;;;;15.90;86.00;16.00;99522.00;;;;344439;28;90268;-93
2021/08/28 00:41:51;;;;;;;;;;;15.80;85.90;16.00;99523.00;;;;345505;28;83943;-92
2021/08/28 00:42:03;;;;;;;;;;;15.80;86.20;16.00;99519.00;;;;344457;28;90170;-92
2021/08/28 00:42:15;;;;;;;;;;;15.80;86.00;16.00;99527.00;;;;344937;28;82464;-91
2021/08/28 00:42:27;;;;;;;;;;;15.80;86.00;15.90;99527.00;;;;342992;28;89650;-92
2021/08/28 00:42:50;;;;;;;;;;;15.80;86.10;16.00;99522.00;;;;346226;28;83477;-91
2021/08/28 00:43:02;;;;;;;;;;;15.80;86.00;16.00;99525.00;;;;343117;28;90713;-92
2021/08/28 00:43:14;;;;;;;;;;;15.80;86.10;16.00;99520.00;;;;344633;28;83455;-92
2021/08/28 00:43:29;;;;;;;;;;;15.80;86.10;15.90;99529.00;;;;344580;28;90733;-92
2021/08/28 00:43:41;;;;;;;;;;;15.80;86.20;15.90;99529.00;;;;344643;28;83513;-93
2021/08/28 00:43:53;;;;;;;;;;;15.80;86.30;16.00;99525.00;;;;344345;28;91033;-92
2021/08/28 00:44:05;;;;;;;;;;;15.80;86.30;16.00;99514.00;;;;343378;28;83498;-92
2021/08/28 00:44:17;;;;;;;;;;;15.80;86.20;16.00;99518.00;;;;344549;28;91236;-92
2021/08/28 00:44:29;;;;;;;;;;;15.80;86.30;15.90;99528.00;;;;343518;28;83517;-94
2021/08/28 00:44:41;;;;;;;;;;;15.80;86.20;15.90;99519.00;;;;343149;28;90728;-93
2021/08/28 00:44:54;;;;;;;;;;;15.80;86.40;15.90;99526.00;;;;346087;28;83472;-92
2021/08/28 00:45:06;;;;;;;;;;;15.80;86.30;16.00;99516.00;;;;344298;28;90667;-92
2021/08/28 00:45:20;;;;;;;;;;;15.80;86.30;16.00;99521.00;;;;347545;27;83473;-92
2021/08/28 00:45:33;;;;;;;;;;;15.80;86.40;16.00;99530.00;;;;347177;28;91814;-92
2021/08/28 00:45:45;;;;;;;;;;;15.80;86.40;16.00;99517.00;;;;344544;28;82578;-92
2021/08/28 00:46:00;;;;;;;;;;;15.80;86.30;15.90;99513.00;;;;347207;27;90951;-91
2021/08/28 00:46:12;;;;;;;;;;;15.80;86.30;16.00;99516.00;;;;343283;28;83514;-92
2021/08/28 00:46:24;;;;;;;;;;;15.80;86.20;15.90;99516.00;;;;345885;28;91718;-92
2021/08/28 00:46:36;;;;;;;;;;;15.80;86.20;16.00;99520.00;;;;346211;28;83476;-93
2021/08/28 00:46:50;;;;;;;;;;;15.80;86.20;16.00;99524.00;;;;344305;28;89044;-92
2021/08/28 00:47:01;;;;;;;;;;;15.80;86.20;16.00;99515.00;;;;346236;28;82583;-92
2021/08/28 00:47:16;;;;;;;;;;;15.80;86.30;16.00;99524.00;;;;347139;27;90464;-92
2021/08/28 00:47:28;;;;;;;;;;;15.80;86.30;16.00;99525.00;;;;347098;28;83474;-91
2021/08/28 00:47:40;;;;;;;;;;;15.80;86.40;16.00;99521.00;;;;345761;28;90707;-92
2021/08/28 00:47:56;;;;;;;;;;;15.80;86.30;16.00;99516.00;;;;346605;27;84850;-92
2021/08/28 00:48:12;;;;;;;;;;;15.80;86.30;16.00;99516.00;;;;345859;28;90813;-92
2021/08/28 00:48:24;;;;;;;;;;;15.80;86.30;16.00;99514.00;;;;345726;28;83489;-92
2021/08/28 00:48:36;;;;;;;;;;;15.80;86.30;15.90;99509.00;;;;347066;27;92122;-92
2021/08/28 00:48:48;;;;;;;;;;;15.80;86.40;16.00;99516.00;;;;346240;28;83425;-92
2021/08/28 00:49:00;;;;;;;;;;;15.80;86.40;16.00;99510.00;;;;345808;28;89607;-92
2021/08/28 00:49:12;;;;;;;;;;;15.80;86.30;16.00;99505.00;;;;345983;28;83445;-93
2021/08/28 00:49:24;;;;;;;;;;;15.80;86.30;16.00;99520.00;;;;345927;28;90905;-92
2021/08/28 00:49:36;;;;;;;;;;;15.80;86.40;16.00;99527.00;;;;346193;28;83396;-92
2021/08/28 00:49:48;;;;;;;;;;;15.80;86.40;15.90;99515.00;;;;345760;28;90547;-92
2021/08/28 00:50:00;;;;;;;;;;;15.80;86.50;15.90;99517.00;;;;344760;28;82539;-92
2021/08/28 00:50:12;;;;;;;;;;;15.80;86.50;16.00;99521.00;;;;344423;28;92358;-92
2021/08/28 00:50:24;;;;;;;;;;;15.80;86.40;16.00;99515.00;;;;344873;28;82676;-92
2021/08/28 00:50:37;;;;;;;;;;;15.80;86.40;16.00;99525.00;;;;344254;28;90974;-92
2021/08/28 00:50:49;;;;;;;;;;;15.80;86.40;16.00;99515.00;;;;344880;28;82528;-92
2021/08/28 00:51:01;;;;;;;;;;;15.80;86.40;15.90;99514.00;;;;345788;28;91242;-93
2021/08/28 00:51:15;;;;;;;;;;;15.80;86.50;16.00;99523.00;;;;346253;28;82608;-92
2021/08/28 00:51:27;;;;;;;;;;;15.80;86.40;16.00;99519.00;;;;345759;28;91348;-92
2021/08/28 00:51:39;;;;;;;;;;;15.80;86.40;16.00;99519.00;;;;347425;28;83581;-92
2021/08/28 00:51:51;;;;;;;;;;;15.80;86.40;16.00;99520.00;;;;347013;27;91627;-91
2021/08/28 00:52:03;;;;;;;;;;;15.80;86.50;16.00;99521.00;;;;344904;28;82576;-92
2021/08/28 00:52:15;;;;;;;;;;;15.80;86.60;16.00;99520.00;;;;344487;28;90618;-92
2021/08/28 00:52:27;;;;;;;;;;;15.80;86.60;15.90;99519.00;;;;346076;28;83539;-92
2021/08/28 00:52:39;;;;;;;;;;;15.80;86.60;15.90;99518.00;;;;345700;28;91140;-93
2021/08/28 00:52:52;;;;;;;;;;;15.80;86.60;16.00;99511.00;;;;346031;28;82505;-91
2021/08/28 00:53:05;;;;;;;;;;;15.80;86.50;15.90;99513.00;;;;344375;28;90053;-92
2021/08/28 00:53:17;;;;;;;;;;;15.80;86.70;16.00;99512.00;;;;346015;28;83527;-92
2021/08/28 00:53:29;;;;;;;;;;;15.80;86.60;16.00;99519.00;;;;344352;28;91720;-92
2021/08/28 00:53:41;;;;;;;;;;;15.80;86.60;16.00;99518.00;;;;347631;28;83509;-92
2021/08/28 00:53:53;;;;;;;;;;;15.80;86.60;15.90;99522.00;;;;346702;27;91188;-92
2021/08/28 00:54:06;;;;;;;;;;;15.80;86.50;15.90;99517.00;;;;346247;28;83525;-92
2021/08/28 00:54:17;;;;;;;;;;;15.80;86.50;15.90;99516.00;;;;347006;28;91072;-93
2021/08/28 00:54:35;;;;;;;;;;;15.80;86.60;16.00;99503.00;;;;347632;27;83440;-93
2021/08/28 00:54:47;;;;;;;;;;;15.80;86.60;15.90;99511.00;;;;344411;28;90393;-93
2021/08/28 00:54:59;;;;;;;;;;;15.80;86.60;15.90;99519.00;;;;344782;28;83415;-92
2021/08/28 00:55:11;;;;;;;;;;;15.80;86.60;16.00;99516.00;;;;345836;28;90833;-92
2021/08/28 00:55:26;;;;;;;;;;;15.80;86.70;16.00;99517.00;;;;347659;28;83396;-92
2021/08/28 00:55:45;;;;;;;;;;;15.80;86.80;16.00;99516.00;;;;344490;28;90417;-92
2021/08/28 00:55:56;;;;;;;;;;;15.80;86.80;16.00;99520.00;;;;344840;28;82626;-93
2021/08/28 00:56:09;;;;;;;;;;;15.80;86.80;16.00;99519.00;;;;344431;28;92174;-93
2021/08/28 00:56:21;;;;;;;;;;;15.80;86.80;16.00;99519.00;;;;344579;28;82689;-93
2021/08/28 00:56:34;;;;;;;;;;;15.80;86.70;16.00;99519.00;;;;344776;28;90693;-93
2021/08/28 00:56:46;;;;;;;;;;;15.80;86.70;16.00;99515.00;;;;345726;28;83449;-93
2021/08/28 00:57:00;;;;;;;;;;;15.80;86.60;16.00;99517.00;;;;345774;28;90430;-91
2021/08/28 00:57:12;;;;;;;;;;;15.80;86.60;16.00;99518.00;;;;346206;28;82505;-92
2021/08/28 00:57:24;;;;;;;;;;;15.80;86.70;16.00;99518.00;;;;346679;28;90846;-92
2021/08/28 00:57:37;;;;;;;;;;;15.70;86.60;16.00;99518.00;;;;346354;28;82497;-92
2021/08/28 00:57:49;;;;;;;;;;;15.80;86.80;16.00;99515.00;;;;345620;28;91482;-91
2021/08/28 00:58:01;;;;;;;;;;;15.80;86.80;16.00;99517.00;;;;346195;28;83415;-92
2021/08/28 00:58:13;;;;;;;;;;;15.80;86.80;15.90;99519.00;;;;345826;28;89498;-92
2021/08/28 00:58:25;;;;;;;;;;;15.80;86.70;16.00;99510.00;;;;343565;28;83296;-91
2021/08/28 00:58:37;;;;;;;;;;;15.80;86.60;16.00;99514.00;;;;345785;28;91860;-93
2021/08/28 00:58:49;;;;;;;;;;;15.80;86.60;16.00;99516.00;;;;346120;28;83453;-93
2021/08/28 00:59:00;;;;;;;;;;;15.80;86.60;16.00;99523.00;;;;344212;28;91664;-92
2021/08/28 00:59:13;;;;;;;;;;;15.80;86.60;16.00;99511.00;;;;347420;28;82587;-92
2021/08/28 00:59:25;;;;;;;;;;;15.80;86.60;16.00;99516.00;;;;346670;28;92638;-93
2021/08/28 00:59:39;;;;;;;;;;;15.80;86.60;16.00;99519.00;;;;347227;28;82558;-91
2021/08/28 00:59:50;;;;;;;;;;;15.80;86.60;16.00;99516.00;;;;344928;28;90303;-92
2021/08/28 01:00:06;;;;;;;;;;;15.80;86.60;16.00;99518.00;;;;346243;28;82497;-92
2021/08/28 01:00:18;;;;;;;;;;;15.80;86.50;16.00;99516.00;;;;345760;28;90443;-93
2021/08/28 01:00:31;;;;;;;;;;;15.80;86.60;16.00;99515.00;;;;346159;28;84636;-92
2021/08/28 01:00:43;;;;;;;;;;;15.80;86.60;15.90;99513.00;;;;345860;28;91687;-92
2021/08/28 01:00:59;;;;;;;;;;;15.80;86.60;16.00;99518.00;;;;346239;28;82508;-92